createdAt,value
2019-05-11T00:01:03.872Z,7.98
2019-05-11T00:03:32.845Z,7.94
2019-05-11T00:06:01.992Z,8.00
2019-05-11T00:08:30.671Z,8.01
2019-05-11T00:10:59.581Z,8.00
2019-05-11T00:13:28.601Z,7.80
2019-05-11T00:15:57.569Z,7.85
2019-05-11T00:18:26.485Z,7.91
2019-05-11T00:20:55.271Z,7.94
2019-05-11T00:23:24.234Z,7.94
2019-05-11T00:25:52.713Z,7.97
2019-05-11T00:28:21.280Z,7.99
2019-05-11T00:30:50.318Z,7.95
2019-05-11T00:33:19.053Z,7.97
2019-05-11T00:35:47.982Z,7.99
2019-05-11T00:38:17.318Z,7.97
2019-05-11T00:40:46.034Z,7.96
2019-05-11T00:43:15.090Z,8.03
2019-05-11T00:45:45.290Z,8.09
2019-05-11T00:48:15.004Z,7.83
2019-05-11T00:50:43.561Z,7.82
2019-05-11T00:53:12.336Z,7.79
2019-05-11T00:55:41.392Z,7.70
2019-05-11T00:58:10.830Z,7.77
2019-05-11T01:00:39.513Z,7.71
2019-05-11T01:03:08.194Z,7.94
2019-05-11T01:05:36.860Z,8.00
2019-05-11T01:08:05.745Z,7.98
2019-05-11T01:10:42.089Z,8.02
2019-05-11T01:13:05.398Z,8.02
2019-05-11T01:15:34.088Z,8.00
2019-05-11T01:18:03.046Z,8.01
2019-05-11T01:20:33.141Z,7.67
2019-05-11T01:23:01.794Z,7.52
2019-05-11T01:25:30.814Z,7.59
2019-05-11T01:27:59.766Z,7.71
2019-05-11T01:30:28.802Z,7.79
2019-05-11T01:32:57.426Z,7.80
2019-05-11T01:35:26.261Z,7.78
2019-05-11T01:37:55.376Z,7.76
2019-05-11T01:40:24.363Z,7.80
2019-05-11T01:42:53.780Z,7.80
2019-05-11T01:45:22.668Z,7.83
2019-05-11T01:47:51.650Z,7.88
2019-05-11T01:50:20.334Z,7.84
2019-05-11T01:52:49.262Z,7.82
2019-05-11T01:55:17.695Z,7.89
2019-05-11T01:57:46.428Z,7.93
2019-05-11T02:00:15.148Z,7.94
2019-05-11T02:02:44.054Z,7.99
2019-05-11T02:05:28.832Z,7.93
2019-05-11T02:07:59.441Z,7.95
2019-05-11T02:10:28.693Z,7.91
2019-05-11T02:12:57.364Z,7.91
2019-05-11T02:15:26.684Z,7.91
2019-05-11T02:17:55.199Z,7.93
2019-05-11T02:20:24.578Z,7.88
2019-05-11T02:22:53.154Z,7.86
2019-05-11T02:25:21.669Z,7.85
2019-05-11T02:27:50.182Z,7.84
2019-05-11T02:30:19.383Z,7.85
2019-05-11T02:32:48.137Z,7.84
2019-05-11T02:35:16.791Z,7.81
2019-05-11T02:37:46.500Z,7.84
2019-05-11T02:40:16.019Z,7.80
2019-05-11T02:42:46.449Z,7.80
2019-05-11T02:45:20.191Z,7.83
2019-05-11T02:47:48.996Z,7.76
2019-05-11T02:50:18.010Z,7.67
2019-05-11T02:52:47.798Z,7.61
2019-05-11T02:55:16.405Z,7.46
2019-05-11T02:57:45.027Z,7.29
2019-05-11T03:00:17.869Z,7.26
2019-05-11T03:02:46.492Z,7.26
2019-05-11T03:05:18.040Z,7.30
2019-05-11T03:07:47.746Z,7.31
2019-05-11T03:10:16.917Z,7.37
2019-05-11T03:12:45.876Z,7.40
2019-05-11T03:15:14.997Z,7.52
2019-05-11T03:17:44.009Z,7.60
2019-05-11T03:20:13.021Z,7.63
2019-05-11T03:22:42.028Z,7.71
2019-05-11T03:25:11.302Z,7.75
2019-05-11T03:27:40.711Z,7.78
2019-05-11T03:30:09.982Z,7.75
2019-05-11T03:32:39.186Z,7.61
2019-05-11T03:35:09.120Z,7.59
2019-05-11T03:37:39.065Z,7.52
2019-05-11T03:40:09.193Z,7.55
2019-05-11T03:42:37.863Z,7.64
2019-05-11T03:45:08.203Z,7.57
2019-05-11T03:47:36.834Z,7.64
2019-05-11T03:50:06.040Z,7.73
2019-05-11T03:52:35.071Z,7.69
2019-05-11T03:55:03.977Z,7.80
2019-05-11T03:57:32.670Z,7.80
2019-05-11T04:00:01.579Z,7.82
2019-05-11T04:02:31.785Z,7.77
2019-05-11T04:05:00.853Z,7.79
2019-05-11T04:07:30.618Z,7.74
2019-05-11T04:09:59.837Z,7.78
2019-05-11T04:12:34.756Z,7.76
2019-05-11T04:14:59.145Z,7.76
2019-05-11T04:17:28.568Z,7.76
2019-05-11T04:19:58.558Z,7.71
2019-05-11T04:22:27.568Z,7.63
2019-05-11T04:24:56.301Z,7.77
2019-05-11T04:27:25.087Z,7.72
2019-05-11T04:29:53.992Z,7.72
2019-05-11T04:32:25.074Z,7.70
2019-05-11T04:34:53.772Z,7.69
2019-05-11T04:37:22.981Z,7.75
2019-05-11T04:39:52.252Z,7.72
2019-05-11T04:42:21.700Z,7.73
2019-05-11T04:44:52.404Z,7.78
2019-05-11T04:47:21.410Z,7.76
2019-05-11T04:49:50.131Z,7.81
2019-05-11T04:52:19.062Z,7.73
2019-05-11T04:54:48.979Z,7.73
2019-05-11T04:57:17.732Z,7.76
2019-05-11T04:59:46.438Z,7.89
2019-05-11T05:02:15.318Z,7.91
2019-05-11T05:04:44.273Z,7.79
2019-05-11T05:07:16.507Z,7.92
2019-05-11T05:09:44.770Z,7.94
2019-05-11T05:12:15.637Z,7.89
2019-05-11T05:14:44.518Z,7.89
2019-05-11T05:17:13.202Z,7.93
2019-05-11T05:19:42.158Z,7.91
2019-05-11T05:22:11.658Z,7.94
2019-05-11T05:24:41.274Z,7.72
2019-05-11T05:27:11.041Z,7.82
2019-05-11T05:29:40.321Z,7.80
2019-05-11T05:32:08.992Z,7.92
2019-05-11T05:34:37.768Z,7.77
2019-05-11T05:37:07.107Z,7.76
2019-05-11T05:39:37.013Z,7.79
2019-05-11T05:42:05.870Z,7.90
2019-05-11T05:44:34.635Z,7.73
2019-05-11T05:47:03.523Z,7.81
2019-05-11T05:49:32.583Z,7.86
2019-05-11T05:52:01.768Z,7.88
2019-05-11T05:54:30.824Z,8.02
2019-05-11T05:57:00.303Z,8.15
2019-05-11T05:59:29.120Z,8.10
2019-05-11T06:01:58.699Z,8.14
2019-05-11T06:04:28.287Z,8.13
2019-05-11T06:06:57.585Z,8.26
2019-05-11T06:09:29.972Z,8.46
2019-05-11T06:11:58.731Z,8.45
2019-05-11T06:14:29.738Z,8.49
2019-05-11T06:16:59.027Z,8.58
2019-05-11T06:19:28.047Z,8.52
2019-05-11T06:21:56.758Z,8.55
2019-05-11T06:24:26.289Z,8.44
2019-05-11T06:26:55.234Z,8.44
2019-05-11T06:29:25.491Z,8.53
2019-05-11T06:31:54.579Z,8.44
2019-05-11T06:34:25.922Z,8.38
2019-05-11T06:36:55.560Z,8.64
2019-05-11T06:39:24.749Z,8.66
2019-05-11T06:41:53.515Z,8.61
2019-05-11T06:44:22.822Z,8.70
2019-05-11T06:46:51.911Z,8.54
2019-05-11T06:49:20.980Z,8.53
2019-05-11T06:51:50.245Z,8.68
2019-05-11T06:54:19.598Z,8.58
2019-05-11T06:56:48.333Z,8.64
2019-05-11T06:59:17.180Z,8.69
2019-05-11T07:01:45.856Z,8.82
2019-05-11T07:04:14.976Z,8.87
2019-05-11T07:06:44.035Z,9.02
2019-05-11T07:09:13.424Z,9.02
2019-05-11T07:11:42.956Z,8.55
2019-05-11T07:14:20.493Z,8.74
2019-05-11T07:16:43.036Z,9.00
2019-05-11T07:19:14.889Z,8.87
2019-05-11T07:21:43.608Z,8.80
2019-05-11T07:24:15.255Z,8.82
2019-05-11T07:26:44.930Z,8.83
2019-05-11T07:29:14.137Z,8.88
2019-05-11T07:31:43.249Z,8.78
2019-05-11T07:34:18.373Z,8.76
2019-05-11T07:36:47.757Z,8.63
2019-05-11T07:39:18.656Z,8.64
2019-05-11T07:41:48.280Z,8.75
2019-05-11T07:44:19.100Z,8.83
2019-05-11T07:46:50.373Z,8.62
2019-05-11T07:49:23.207Z,8.66
2019-05-11T07:51:54.050Z,8.63
2019-05-11T07:54:23.661Z,8.81
2019-05-11T07:56:53.871Z,8.71
2019-05-11T07:59:23.344Z,8.79
2019-05-11T08:01:52.392Z,8.92
2019-05-11T08:04:23.906Z,9.05
2019-05-11T08:06:55.674Z,8.78
2019-05-11T08:09:28.067Z,9.02
2019-05-11T08:11:58.498Z,8.93
2019-05-11T08:14:31.332Z,9.01
2019-05-11T08:17:01.770Z,9.06
2019-05-11T08:19:30.908Z,9.07
2019-05-11T08:22:01.065Z,8.89
2019-05-11T08:24:42.517Z,8.84
2019-05-11T08:27:14.574Z,8.84
2019-05-11T08:29:44.716Z,9.00
2019-05-11T08:32:18.309Z,9.07
2019-05-11T08:34:49.062Z,9.01
2019-05-11T08:37:19.025Z,8.74
2019-05-11T08:39:48.295Z,8.75
2019-05-11T08:42:17.836Z,8.80
2019-05-11T08:44:48.302Z,8.80
2019-05-11T08:47:17.799Z,8.70
2019-05-11T08:49:48.478Z,8.91
2019-05-11T08:52:18.628Z,8.87
2019-05-11T08:54:48.767Z,8.89
2019-05-11T08:57:18.080Z,8.68
2019-05-11T08:59:48.460Z,8.74
2019-05-11T09:02:18.593Z,8.76
2019-05-11T09:04:48.474Z,8.80
2019-05-11T09:07:18.426Z,8.94
2019-05-11T09:09:48.399Z,8.85
2019-05-11T09:12:18.428Z,8.80
2019-05-11T09:14:47.816Z,8.90
2019-05-11T09:17:18.264Z,9.06
2019-05-11T09:19:48.051Z,8.85
2019-05-11T09:22:18.726Z,8.58
2019-05-11T09:24:47.877Z,8.24
2019-05-11T09:27:18.426Z,8.43
2019-05-11T09:29:49.100Z,8.61
2019-05-11T09:32:19.603Z,8.61
2019-05-11T09:34:48.567Z,8.55
2019-05-11T09:37:18.513Z,8.51
2019-05-11T09:39:49.868Z,8.61
2019-05-11T09:42:19.647Z,8.36
2019-05-11T09:44:48.638Z,8.53
2019-05-11T09:47:18.922Z,8.54
2019-05-11T09:49:50.658Z,8.29
2019-05-11T09:52:19.152Z,8.59
2019-05-11T09:54:50.313Z,8.79
2019-05-11T09:57:19.314Z,8.59
2019-05-11T09:59:51.251Z,8.82
2019-05-11T10:02:21.130Z,8.96
2019-05-11T10:04:50.025Z,8.99
2019-05-11T10:07:19.900Z,8.95
2019-05-11T10:09:49.266Z,8.76
2019-05-11T10:12:18.201Z,9.17
2019-05-11T10:14:48.585Z,9.10
2019-05-11T10:17:18.225Z,9.05
2019-05-11T10:19:49.522Z,9.21
2019-05-11T10:22:18.547Z,8.75
2019-05-11T10:24:48.295Z,8.92
2019-05-11T10:27:18.946Z,8.91
2019-05-11T10:29:48.341Z,9.04
2019-05-11T10:32:18.386Z,9.01
2019-05-11T10:34:47.954Z,9.00
2019-05-11T10:37:17.702Z,8.88
2019-05-11T10:39:48.823Z,9.08
2019-05-11T10:42:18.594Z,8.94
2019-05-11T10:44:47.939Z,8.93
2019-05-11T10:47:18.458Z,8.93
2019-05-11T10:49:48.471Z,8.83
2019-05-11T10:52:18.005Z,9.06
2019-05-11T10:54:47.804Z,9.27
2019-05-11T10:57:18.737Z,9.22
2019-05-11T10:59:48.901Z,9.22
2019-05-11T11:02:18.488Z,9.48
2019-05-11T11:04:49.753Z,9.56
2019-05-11T11:07:19.467Z,9.41
2019-05-11T11:09:49.153Z,9.40
2019-05-11T11:12:18.824Z,9.44
2019-05-11T11:14:48.291Z,9.39
2019-05-11T11:17:19.176Z,9.40
2019-05-11T11:19:48.848Z,9.66
2019-05-11T11:22:36.141Z,9.43
2019-05-11T11:24:48.522Z,9.35
2019-05-11T11:27:18.464Z,9.68
2019-05-11T11:29:47.651Z,9.68
2019-05-11T11:32:20.118Z,9.83
2019-05-11T11:34:49.063Z,9.92
2019-05-11T11:37:20.556Z,9.83
2019-05-11T11:39:49.458Z,9.91
2019-05-11T11:42:18.296Z,9.96
2019-05-11T11:44:48.343Z,10.06
2019-05-11T11:47:21.411Z,10.07
2019-05-11T11:49:48.748Z,10.13
2019-05-11T11:52:21.351Z,10.34
2019-05-11T11:54:52.919Z,10.35
2019-05-11T11:57:21.863Z,10.34
2019-05-11T11:59:50.980Z,10.33
2019-05-11T12:02:20.223Z,10.35
2019-05-11T12:04:49.137Z,10.47
2019-05-11T12:07:18.563Z,10.64
2019-05-11T12:12:24.630Z,10.59
2019-05-11T12:14:55.347Z,10.77
2019-05-11T12:17:28.474Z,10.94
2019-05-11T12:19:58.556Z,10.81
2019-05-11T12:22:29.182Z,10.72
2019-05-11T12:24:59.058Z,10.91
2019-05-11T12:27:30.852Z,10.87
2019-05-11T12:29:59.717Z,10.77
2019-05-11T12:32:45.616Z,10.81
2019-05-11T12:35:15.235Z,10.86
2019-05-11T12:37:48.508Z,10.75
2019-05-11T12:40:19.358Z,10.89
2019-05-11T12:42:49.318Z,10.86
2019-05-11T12:45:19.003Z,10.74
2019-05-11T12:47:48.510Z,10.97
2019-05-11T12:50:19.514Z,11.05
2019-05-11T12:52:49.233Z,11.04
2019-05-11T12:55:18.338Z,11.04
2019-05-11T12:57:48.188Z,11.10
2019-05-11T13:00:19.017Z,11.15
2019-05-11T13:02:48.651Z,11.18
2019-05-11T13:05:18.126Z,11.04
2019-05-11T13:07:48.152Z,11.01
2019-05-11T13:10:18.902Z,11.08
2019-05-11T13:12:49.450Z,11.06
2019-05-11T13:15:21.132Z,11.14
2019-05-11T13:17:51.667Z,11.18
2019-05-11T13:20:21.035Z,11.10
2019-05-11T13:22:50.158Z,11.03
2019-05-11T13:25:18.898Z,11.26
2019-05-11T13:27:49.346Z,11.21
2019-05-11T13:30:19.448Z,11.26
2019-05-11T13:32:49.379Z,11.27
2019-05-11T13:35:19.420Z,11.15
2019-05-11T13:37:48.377Z,11.23
2019-05-11T13:40:18.806Z,11.14
2019-05-11T13:42:49.272Z,11.21
2019-05-11T13:45:18.948Z,11.14
2019-05-11T13:47:55.269Z,11.17
2019-05-11T13:50:19.181Z,11.24
2019-05-11T13:52:52.810Z,11.30
2019-05-11T13:55:22.059Z,11.10
2019-05-11T13:57:51.340Z,11.22
2019-05-11T14:00:21.573Z,11.13
2019-05-11T14:02:50.790Z,11.06
2019-05-11T14:05:20.107Z,11.12
2019-05-11T14:07:49.116Z,10.97
2019-05-11T14:10:19.295Z,11.08
2019-05-11T14:12:48.570Z,11.05
2019-05-11T14:15:18.847Z,11.02
2019-05-11T14:17:48.786Z,11.06
2019-05-11T14:20:19.307Z,11.23
2019-05-11T14:22:48.895Z,11.30
2019-05-11T14:25:19.989Z,11.22
2019-05-11T14:27:49.173Z,11.28
2019-05-11T14:30:19.250Z,11.40
2019-05-11T14:32:48.691Z,11.37
2019-05-11T14:35:18.863Z,11.28
2019-05-11T14:37:48.786Z,11.30
2019-05-11T14:40:18.015Z,11.43
2019-05-11T14:42:48.967Z,11.28
2019-05-11T14:45:21.417Z,11.29
2019-05-11T14:47:50.449Z,11.18
2019-05-11T14:50:19.550Z,11.29
2019-05-11T14:52:49.371Z,11.31
2019-05-11T14:55:18.561Z,11.26
2019-05-11T14:57:48.639Z,11.26
2019-05-11T15:00:21.123Z,11.33
2019-05-11T15:02:50.180Z,11.37
2019-05-11T15:05:21.543Z,11.38
2019-05-11T15:07:52.833Z,11.42
2019-05-11T15:10:23.271Z,11.35
2019-05-11T15:12:52.096Z,11.42
2019-05-11T15:15:21.385Z,11.47
2019-05-11T15:17:50.894Z,11.55
2019-05-11T15:20:20.163Z,11.53
2019-05-11T15:22:49.122Z,11.55
2019-05-11T15:25:19.959Z,11.53
2019-05-11T15:27:52.373Z,11.67
2019-05-11T15:30:52.659Z,11.62
2019-05-11T15:34:01.633Z,11.75
2019-05-11T15:36:54.300Z,11.60
2019-05-11T15:39:54.434Z,11.57
2019-05-11T15:42:41.367Z,11.55
2019-05-11T15:45:27.535Z,11.56
2019-05-11T15:48:06.111Z,11.46
2019-05-11T15:50:48.628Z,11.54
2019-05-11T15:53:31.797Z,11.51
2019-05-11T15:56:31.410Z,11.47
2019-05-11T15:59:08.901Z,11.51
2019-05-11T16:01:45.528Z,11.45
2019-05-11T16:04:34.907Z,11.35
2019-05-11T16:07:20.275Z,11.31
2019-05-11T16:10:05.341Z,11.31
2019-05-11T16:12:48.346Z,11.33
2019-05-11T16:15:35.531Z,11.22
2019-05-11T16:21:21.682Z,11.23
2019-05-11T16:24:10.611Z,11.24
2019-05-11T16:27:28.444Z,11.22
2019-05-11T16:30:07.762Z,11.18
2019-05-11T16:33:04.451Z,11.24
2019-05-11T16:35:50.475Z,11.20
2019-05-11T16:38:43.424Z,11.19
2019-05-11T16:41:39.604Z,11.19
2019-05-11T16:44:48.320Z,11.22
2019-05-11T16:48:07.918Z,11.24
2019-05-11T16:51:04.271Z,11.15
2019-05-11T16:54:03.648Z,11.15
2019-05-11T16:57:22.369Z,11.20
2019-05-11T17:00:00.303Z,11.19
2019-05-11T17:02:49.069Z,11.17
2019-05-11T17:05:38.281Z,11.18
2019-05-11T17:09:13.331Z,11.20
2019-05-11T17:15:21.016Z,11.14
2019-05-11T17:18:15.855Z,11.14
2019-05-11T17:21:04.950Z,11.15
2019-05-11T17:24:18.358Z,11.12
2019-05-11T17:27:48.721Z,11.08
2019-05-11T17:30:39.017Z,11.08
2019-05-11T17:33:38.371Z,11.05
2019-05-11T17:36:37.550Z,11.07
2019-05-11T17:39:20.508Z,11.04
2019-05-11T17:42:21.463Z,11.08
2019-05-11T17:45:18.922Z,11.09
2019-05-11T17:55:00.423Z,11.14
2019-05-11T17:58:19.309Z,11.14
2019-05-11T18:04:20.074Z,11.09
2019-05-11T18:07:27.707Z,11.01
2019-05-11T18:13:45.327Z,11.06
2019-05-11T18:30:47.988Z,11.03
2019-05-11T18:33:34.639Z,10.99
2019-05-11T18:46:09.476Z,10.94
2019-05-11T18:48:38.765Z,10.88
2019-05-11T18:51:08.687Z,10.88
2019-05-11T18:53:37.748Z,10.87
2019-05-11T18:56:08.658Z,10.83
2019-05-11T18:58:38.399Z,10.83
2019-05-11T19:01:07.835Z,10.77
2019-05-11T19:03:38.477Z,10.79
2019-05-11T19:06:08.874Z,10.73
2019-05-11T19:08:38.470Z,10.70
2019-05-11T19:11:09.249Z,10.68
2019-05-11T19:13:38.805Z,10.64
2019-05-11T19:16:08.629Z,10.57
2019-05-11T19:18:38.783Z,10.51
2019-05-11T19:21:09.244Z,10.48
2019-05-11T19:23:38.112Z,10.42
2019-05-11T19:26:08.385Z,10.38
2019-05-11T19:28:38.519Z,10.36
2019-05-11T19:31:08.382Z,10.27
2019-05-11T19:33:39.090Z,10.24
2019-05-11T19:38:47.771Z,10.21
2019-05-11T19:43:57.705Z,10.12
2019-05-11T19:46:28.066Z,10.01
2019-05-11T19:48:57.937Z,9.99
2019-05-11T19:51:28.919Z,9.92
2019-05-11T19:53:57.636Z,9.89
2019-05-11T19:56:28.934Z,9.85
2019-05-11T19:58:58.096Z,9.82
2019-05-11T20:01:27.905Z,9.76
2019-05-11T20:03:57.212Z,9.74
2019-05-11T20:09:08.205Z,9.67
2019-05-11T20:11:38.365Z,9.53
2019-05-11T20:14:08.055Z,9.47
2019-05-11T20:19:18.770Z,9.47
2019-05-11T20:21:48.550Z,9.40
2019-05-11T20:24:18.653Z,9.31
2019-05-11T20:26:47.435Z,9.28
2019-05-11T20:29:16.462Z,9.21
2019-05-11T20:31:45.464Z,9.24
2019-05-11T20:36:53.821Z,9.09
2019-05-11T20:39:22.554Z,9.01
2019-05-11T20:41:51.180Z,8.99
2019-05-11T20:44:19.781Z,8.96
2019-05-11T20:46:48.833Z,8.89
2019-05-11T20:49:17.442Z,8.81
2019-05-11T20:51:48.364Z,8.76
2019-05-11T20:54:17.651Z,8.66
2019-05-11T20:59:28.779Z,8.66
2019-05-11T21:01:58.685Z,8.57
2019-05-11T21:04:28.419Z,8.50
2019-05-11T21:06:58.099Z,8.47
2019-05-11T21:09:28.731Z,8.42
2019-05-11T21:11:58.792Z,8.32
2019-05-11T21:14:28.809Z,8.26
2019-05-11T21:16:58.630Z,8.23
2019-05-11T21:19:28.330Z,8.21
2019-05-11T21:21:59.045Z,8.12
2019-05-11T21:24:28.116Z,8.09
2019-05-11T21:26:58.475Z,8.03
2019-05-11T21:29:31.277Z,7.94
2019-05-11T21:31:59.101Z,7.88
2019-05-11T21:34:28.219Z,7.82
2019-05-11T21:36:57.721Z,7.79
2019-05-11T21:39:28.731Z,7.75
2019-05-11T21:44:37.202Z,7.59
2019-05-11T21:47:07.717Z,7.44
2019-05-11T21:49:37.826Z,7.41
2019-05-11T21:52:07.807Z,7.36
2019-05-11T21:54:38.672Z,7.27
2019-05-11T21:57:08.242Z,7.19
2019-05-11T21:59:37.950Z,7.14
2019-05-11T22:02:10.645Z,7.08
2019-05-11T22:04:38.868Z,7.11
2019-05-11T22:07:08.218Z,7.11
2019-05-11T22:09:38.384Z,7.07
2019-05-11T22:12:07.836Z,7.00
2019-05-11T22:14:38.473Z,6.95
2019-05-11T22:17:07.818Z,6.88
2019-05-11T22:19:40.265Z,6.85
2019-05-11T22:22:20.663Z,6.76
2019-05-11T22:24:37.784Z,6.76
2019-05-11T22:27:07.990Z,6.73
2019-05-11T22:29:37.869Z,6.68
2019-05-11T22:32:07.181Z,6.64
2019-05-11T22:34:37.856Z,6.60
2019-05-11T22:37:08.629Z,6.57
2019-05-11T22:39:38.131Z,6.55
2019-05-11T22:42:07.904Z,6.54
2019-05-11T22:44:38.611Z,6.52
2019-05-11T22:47:08.942Z,6.48
2019-05-11T22:49:38.091Z,6.41
2019-05-11T22:52:08.626Z,6.41
2019-05-11T22:54:38.424Z,6.35
2019-05-11T22:57:08.185Z,6.38
2019-05-11T22:59:38.496Z,6.29
2019-05-11T23:02:10.720Z,6.29
2019-05-11T23:04:38.992Z,6.27
2019-05-11T23:07:08.075Z,6.30
2019-05-11T23:09:38.121Z,6.22
2019-05-11T23:12:09.086Z,6.22
2019-05-11T23:14:37.808Z,6.20
2019-05-11T23:17:08.119Z,6.13
2019-05-11T23:19:39.300Z,6.11
2019-05-11T23:22:09.942Z,6.09
2019-05-11T23:24:39.890Z,6.08
2019-05-11T23:27:08.940Z,6.06
2019-05-11T23:29:38.412Z,6.05
2019-05-11T23:32:08.631Z,6.05
2019-05-11T23:34:38.809Z,6.05
2019-05-11T23:37:08.009Z,5.98
2019-05-11T23:39:38.760Z,6.00
2019-05-11T23:42:08.180Z,5.94
2019-05-11T23:44:37.429Z,5.95
2019-05-11T23:47:06.034Z,5.93
2019-05-11T23:49:34.629Z,5.87
2019-05-11T23:52:03.611Z,5.85
2019-05-11T23:54:33.166Z,5.84
2019-05-11T23:57:02.067Z,5.84
